sensor_id;sensor_type;location;lat;lon;timestamp;P1;durP1;ratioP1;P2;durP2;ratioP2
16839;SDS011;8536;52.150;11.572;2022-09-27T00:01:07;1.23;;;0.70;;
16839;SDS011;8536;52.150;11.572;2022-09-27T00:03:35;0.80;;;0.80;;
16839;SDS011;8536;52.150;11.572;2022-09-27T00:06:06;1.02;;;0.88;;
16839;SDS011;8536;52.150;11.572;2022-09-27T00:08:34;1.20;;;0.60;;
16839;SDS011;8536;52.150;11.572;2022-09-27T00:11:06;1.60;;;0.75;;
16839;SDS011;8536;52.150;11.572;2022-09-27T00:13:34;0.60;;;0.55;;
16839;SDS011;8536;52.150;11.572;2022-09-27T00:16:01;1.30;;;0.60;;
16839;SDS011;8536;52.150;11.572;2022-09-27T00:18:31;1.23;;;0.60;;
16839;SDS011;8536;52.150;11.572;2022-09-27T00:21:05;0.52;;;0.52;;
16839;SDS011;8536;52.150;11.572;2022-09-27T00:23:33;1.48;;;0.77;;
16839;SDS011;8536;52.150;11.572;2022-09-27T00:26:00;1.48;;;0.70;;
16839;SDS011;8536;52.150;11.572;2022-09-27T00:28:27;0.75;;;0.60;;
16839;SDS011;8536;52.150;11.572;2022-09-27T00:30:53;0.40;;;0.40;;
16839;SDS011;8536;52.150;11.572;2022-09-27T00:33:20;2.05;;;0.80;;
16839;SDS011;8536;52.150;11.572;2022-09-27T00:35:46;0.70;;;0.70;;
16839;SDS011;8536;52.150;11.572;2022-09-27T00:38:13;1.27;;;0.55;;
16839;SDS011;8536;52.150;11.572;2022-09-27T00:40:39;0.50;;;0.50;;
16839;SDS011;8536;52.150;11.572;2022-09-27T00:43:13;0.35;;;0.35;;
16839;SDS011;8536;52.150;11.572;2022-09-27T00:45:43;0.90;;;0.55;;
16839;SDS011;8536;52.150;11.572;2022-09-27T00:48:14;1.52;;;0.60;;
16839;SDS011;8536;52.150;11.572;2022-09-27T00:50:41;0.90;;;0.60;;
16839;SDS011;8536;52.150;11.572;2022-09-27T00:53:18;1.52;;;0.68;;
16839;SDS011;8536;52.150;11.572;2022-09-27T00:55:52;0.82;;;0.50;;
16839;SDS011;8536;52.150;11.572;2022-09-27T00:58:22;1.77;;;0.57;;
16839;SDS011;8536;52.150;11.572;2022-09-27T01:00:51;0.55;;;0.50;;
16839;SDS011;8536;52.150;11.572;2022-09-27T01:03:26;2.25;;;0.80;;
16839;SDS011;8536;52.150;11.572;2022-09-27T01:05:58;0.82;;;0.63;;
16839;SDS011;8536;52.150;11.572;2022-09-27T01:08:25;0.65;;;0.60;;
16839;SDS011;8536;52.150;11.572;2022-09-27T01:10:54;0.50;;;0.50;;
16839;SDS011;8536;52.150;11.572;2022-09-27T01:16:47;1.27;;;1.15;;
16839;SDS011;8536;52.150;11.572;2022-09-27T01:22:22;1.77;;;1.33;;
16839;SDS011;8536;52.150;11.572;2022-09-27T01:25:02;1.70;;;1.13;;
16839;SDS011;8536;52.150;11.572;2022-09-27T01:28:12;0.95;;;0.90;;
16839;SDS011;8536;52.150;11.572;2022-09-27T01:36:35;0.50;;;0.50;;
16839;SDS011;8536;52.150;11.572;2022-09-27T01:45:27;0.70;;;0.70;;
16839;SDS011;8536;52.150;11.572;2022-09-27T01:47:58;1.10;;;0.73;;
16839;SDS011;8536;52.150;11.572;2022-09-27T01:50:31;0.95;;;0.80;;
16839;SDS011;8536;52.150;11.572;2022-09-27T01:53:02;0.80;;;0.80;;
16839;SDS011;8536;52.150;11.572;2022-09-27T01:55:34;1.23;;;0.77;;
16839;SDS011;8536;52.150;11.572;2022-09-27T01:58:13;1.52;;;0.88;;
16839;SDS011;8536;52.150;11.572;2022-09-27T02:00:43;0.98;;;0.73;;
16839;SDS011;8536;52.150;11.572;2022-09-27T02:03:13;0.93;;;0.90;;
16839;SDS011;8536;52.150;11.572;2022-09-27T02:08:16;2.15;;;0.90;;
16839;SDS011;8536;52.150;11.572;2022-09-27T02:10:48;1.02;;;0.77;;
16839;SDS011;8536;52.150;11.572;2022-09-27T02:15:48;1.92;;;0.70;;
16839;SDS011;8536;52.150;11.572;2022-09-27T02:18:22;0.98;;;0.85;;
16839;SDS011;8536;52.150;11.572;2022-09-27T02:21:06;1.85;;;0.80;;
16839;SDS011;8536;52.150;11.572;2022-09-27T02:23:37;0.88;;;0.77;;
16839;SDS011;8536;52.150;11.572;2022-09-27T02:26:10;0.70;;;0.70;;
16839;SDS011;8536;52.150;11.572;2022-09-27T02:28:44;0.88;;;0.73;;
16839;SDS011;8536;52.150;11.572;2022-09-27T02:31:14;1.42;;;0.88;;
16839;SDS011;8536;52.150;11.572;2022-09-27T02:33:46;1.15;;;0.80;;
16839;SDS011;8536;52.150;11.572;2022-09-27T02:36:14;1.27;;;0.80;;
16839;SDS011;8536;52.150;11.572;2022-09-27T02:38:42;0.63;;;0.63;;
16839;SDS011;8536;52.150;11.572;2022-09-27T02:41:16;1.23;;;0.82;;
16839;SDS011;8536;52.150;11.572;2022-09-27T02:43:44;0.70;;;0.65;;
16839;SDS011;8536;52.150;11.572;2022-09-27T02:51:58;1.40;;;0.90;;
16839;SDS011;8536;52.150;11.572;2022-09-27T02:54:43;0.82;;;0.60;;
16839;SDS011;8536;52.150;11.572;2022-09-27T03:00:18;1.23;;;0.60;;
16839;SDS011;8536;52.150;11.572;2022-09-27T03:02:54;1.23;;;0.85;;
16839;SDS011;8536;52.150;11.572;2022-09-27T03:05:28;1.73;;;0.77;;
16839;SDS011;8536;52.150;11.572;2022-09-27T03:07:57;1.48;;;0.88;;
16839;SDS011;8536;52.150;11.572;2022-09-27T03:10:25;0.70;;;0.60;;
16839;SDS011;8536;52.150;11.572;2022-09-27T03:12:53;0.63;;;0.50;;
16839;SDS011;8536;52.150;11.572;2022-09-27T03:15:21;0.82;;;0.70;;
16839;SDS011;8536;52.150;11.572;2022-09-27T03:17:47;0.50;;;0.50;;
16839;SDS011;8536;52.150;11.572;2022-09-27T03:20:14;1.13;;;0.90;;
16839;SDS011;8536;52.150;11.572;2022-09-27T03:22:40;0.68;;;0.65;;
16839;SDS011;8536;52.150;11.572;2022-09-27T03:25:07;1.17;;;0.70;;
16839;SDS011;8536;52.150;11.572;2022-09-27T03:27:34;1.02;;;0.70;;
16839;SDS011;8536;52.150;11.572;2022-09-27T03:30:00;0.60;;;0.60;;
16839;SDS011;8536;52.150;11.572;2022-09-27T03:32:27;0.82;;;0.70;;
16839;SDS011;8536;52.150;11.572;2022-09-27T03:34:54;1.00;;;0.60;;
16839;SDS011;8536;52.150;11.572;2022-09-27T03:37:21;0.70;;;0.60;;
16839;SDS011;8536;52.150;11.572;2022-09-27T03:39:48;1.50;;;0.65;;
16839;SDS011;8536;52.150;11.572;2022-09-27T03:42:14;1.48;;;0.63;;
16839;SDS011;8536;52.150;11.572;2022-09-27T03:44:41;0.93;;;0.80;;
16839;SDS011;8536;52.150;11.572;2022-09-27T03:47:08;0.52;;;0.52;;
16839;SDS011;8536;52.150;11.572;2022-09-27T03:49:34;0.77;;;0.77;;
16839;SDS011;8536;52.150;11.572;2022-09-27T03:52:00;2.50;;;0.70;;
16839;SDS011;8536;52.150;11.572;2022-09-27T03:54:27;1.90;;;0.70;;
16839;SDS011;8536;52.150;11.572;2022-09-27T03:56:53;3.40;;;0.80;;
16839;SDS011;8536;52.150;11.572;2022-09-27T03:59:20;1.88;;;0.70;;
16839;SDS011;8536;52.150;11.572;2022-09-27T04:01:46;1.05;;;0.80;;
16839;SDS011;8536;52.150;11.572;2022-09-27T04:04:13;0.80;;;0.65;;
16839;SDS011;8536;52.150;11.572;2022-09-27T04:06:39;2.15;;;0.70;;
16839;SDS011;8536;52.150;11.572;2022-09-27T04:09:06;1.42;;;0.70;;
16839;SDS011;8536;52.150;11.572;2022-09-27T04:11:32;1.80;;;0.70;;
16839;SDS011;8536;52.150;11.572;2022-09-27T04:13:59;0.57;;;0.57;;
16839;SDS011;8536;52.150;11.572;2022-09-27T04:16:25;1.05;;;0.73;;
16839;SDS011;8536;52.150;11.572;2022-09-27T04:18:52;0.60;;;0.40;;
16839;SDS011;8536;52.150;11.572;2022-09-27T04:21:19;1.20;;;0.60;;
16839;SDS011;8536;52.150;11.572;2022-09-27T04:23:45;0.90;;;0.60;;
16839;SDS011;8536;52.150;11.572;2022-09-27T04:26:12;2.30;;;0.60;;
16839;SDS011;8536;52.150;11.572;2022-09-27T04:28:38;0.88;;;0.60;;
16839;SDS011;8536;52.150;11.572;2022-09-27T04:31:05;0.50;;;0.50;;
16839;SDS011;8536;52.150;11.572;2022-09-27T04:33:32;1.00;;;0.60;;
16839;SDS011;8536;52.150;11.572;2022-09-27T04:35:58;0.88;;;0.60;;
16839;SDS011;8536;52.150;11.572;2022-09-27T04:38:43;0.50;;;0.50;;
16839;SDS011;8536;52.150;11.572;2022-09-27T04:41:09;2.28;;;0.70;;
16839;SDS011;8536;52.150;11.572;2022-09-27T04:43:36;0.45;;;0.45;;
16839;SDS011;8536;52.150;11.572;2022-09-27T04:46:03;0.57;;;0.57;;
16839;SDS011;8536;52.150;11.572;2022-09-27T04:48:29;0.82;;;0.50;;
16839;SDS011;8536;52.150;11.572;2022-09-27T04:50:57;0.60;;;0.57;;
16839;SDS011;8536;52.150;11.572;2022-09-27T04:53:24;0.90;;;0.50;;
16839;SDS011;8536;52.150;11.572;2022-09-27T04:55:51;0.70;;;0.70;;
16839;SDS011;8536;52.150;11.572;2022-09-27T04:58:19;0.43;;;0.40;;
16839;SDS011;8536;52.150;11.572;2022-09-27T05:00:49;0.77;;;0.70;;
16839;SDS011;8536;52.150;11.572;2022-09-27T05:03:21;0.77;;;0.70;;
16839;SDS011;8536;52.150;11.572;2022-09-27T05:05:47;0.60;;;0.60;;
16839;SDS011;8536;52.150;11.572;2022-09-27T05:08:14;1.42;;;0.70;;
16839;SDS011;8536;52.150;11.572;2022-09-27T05:10:40;0.68;;;0.50;;
16839;SDS011;8536;52.150;11.572;2022-09-27T05:13:07;0.60;;;0.60;;
16839;SDS011;8536;52.150;11.572;2022-09-27T05:15:33;1.58;;;0.68;;
16839;SDS011;8536;52.150;11.572;2022-09-27T05:18:01;0.73;;;0.70;;
16839;SDS011;8536;52.150;11.572;2022-09-27T05:20:27;0.45;;;0.45;;
16839;SDS011;8536;52.150;11.572;2022-09-27T05:22:54;0.75;;;0.50;;
16839;SDS011;8536;52.150;11.572;2022-09-27T05:25:20;0.73;;;0.55;;
16839;SDS011;8536;52.150;11.572;2022-09-27T05:27:48;0.50;;;0.50;;
16839;SDS011;8536;52.150;11.572;2022-09-27T05:30:15;0.60;;;0.60;;
16839;SDS011;8536;52.150;11.572;2022-09-27T05:32:42;0.45;;;0.45;;
16839;SDS011;8536;52.150;11.572;2022-09-27T05:35:09;1.88;;;0.45;;
16839;SDS011;8536;52.150;11.572;2022-09-27T05:37:35;1.25;;;0.63;;
16839;SDS011;8536;52.150;11.572;2022-09-27T05:40:02;0.45;;;0.45;;
16839;SDS011;8536;52.150;11.572;2022-09-27T05:42:49;2.05;;;0.50;;
16839;SDS011;8536;52.150;11.572;2022-09-27T05:45:16;0.93;;;0.50;;
16839;SDS011;8536;52.150;11.572;2022-09-27T05:47:42;0.82;;;0.60;;
16839;SDS011;8536;52.150;11.572;2022-09-27T05:50:09;1.33;;;0.50;;
16839;SDS011;8536;52.150;11.572;2022-09-27T05:52:35;0.90;;;0.50;;
16839;SDS011;8536;52.150;11.572;2022-09-27T05:55:02;0.60;;;0.60;;
16839;SDS011;8536;52.150;11.572;2022-09-27T05:57:28;1.05;;;0.50;;
16839;SDS011;8536;52.150;11.572;2022-09-27T05:59:55;0.98;;;0.50;;
16839;SDS011;8536;52.150;11.572;2022-09-27T06:02:21;0.65;;;0.50;;
16839;SDS011;8536;52.150;11.572;2022-09-27T06:04:48;0.43;;;0.40;;
16839;SDS011;8536;52.150;11.572;2022-09-27T06:07:14;0.65;;;0.57;;
16839;SDS011;8536;52.150;11.572;2022-09-27T06:09:41;0.70;;;0.50;;
16839;SDS011;8536;52.150;11.572;2022-09-27T06:12:09;0.50;;;0.43;;
16839;SDS011;8536;52.150;11.572;2022-09-27T06:14:36;1.10;;;0.70;;
16839;SDS011;8536;52.150;11.572;2022-09-27T06:17:04;1.17;;;0.40;;
16839;SDS011;8536;52.150;11.572;2022-09-27T06:19:30;2.05;;;0.70;;
16839;SDS011;8536;52.150;11.572;2022-09-27T06:21:57;0.60;;;0.60;;
16839;SDS011;8536;52.150;11.572;2022-09-27T06:24:23;1.23;;;0.63;;
16839;SDS011;8536;52.150;11.572;2022-09-27T06:26:50;1.27;;;0.60;;
16839;SDS011;8536;52.150;11.572;2022-09-27T06:29:16;0.90;;;0.70;;
16839;SDS011;8536;52.150;11.572;2022-09-27T06:31:43;1.00;;;0.70;;
16839;SDS011;8536;52.150;11.572;2022-09-27T06:34:09;4.00;;;0.90;;
16839;SDS011;8536;52.150;11.572;2022-09-27T06:36:35;3.90;;;0.82;;
16839;SDS011;8536;52.150;11.572;2022-09-27T06:39:02;3.88;;;1.02;;
16839;SDS011;8536;52.150;11.572;2022-09-27T06:41:28;2.92;;;0.70;;
16839;SDS011;8536;52.150;11.572;2022-09-27T06:43:55;0.88;;;0.65;;
16839;SDS011;8536;52.150;11.572;2022-09-27T06:46:21;3.83;;;0.90;;
16839;SDS011;8536;52.150;11.572;2022-09-27T06:48:48;2.15;;;0.70;;
16839;SDS011;8536;52.150;11.572;2022-09-27T06:51:14;4.45;;;0.70;;
16839;SDS011;8536;52.150;11.572;2022-09-27T06:53:41;2.45;;;0.60;;
16839;SDS011;8536;52.150;11.572;2022-09-27T06:56:07;1.00;;;0.68;;
16839;SDS011;8536;52.150;11.572;2022-09-27T06:58:34;1.83;;;0.70;;
16839;SDS011;8536;52.150;11.572;2022-09-27T07:01:19;0.73;;;0.73;;
16839;SDS011;8536;52.150;11.572;2022-09-27T07:03:49;3.20;;;0.88;;
16839;SDS011;8536;52.150;11.572;2022-09-27T07:06:19;0.93;;;0.70;;
16839;SDS011;8536;52.150;11.572;2022-09-27T07:08:50;3.20;;;0.90;;
16839;SDS011;8536;52.150;11.572;2022-09-27T07:11:17;1.52;;;0.80;;
16839;SDS011;8536;52.150;11.572;2022-09-27T07:13:44;1.15;;;0.80;;
16839;SDS011;8536;52.150;11.572;2022-09-27T07:16:11;0.75;;;0.70;;
16839;SDS011;8536;52.150;11.572;2022-09-27T07:18:41;1.23;;;0.95;;
16839;SDS011;8536;52.150;11.572;2022-09-27T07:21:07;1.05;;;0.90;;
16839;SDS011;8536;52.150;11.572;2022-09-27T07:23:34;1.50;;;0.77;;
16839;SDS011;8536;52.150;11.572;2022-09-27T07:26:02;0.75;;;0.70;;
16839;SDS011;8536;52.150;11.572;2022-09-27T07:28:32;2.22;;;1.15;;
16839;SDS011;8536;52.150;11.572;2022-09-27T07:31:00;1.58;;;1.20;;
16839;SDS011;8536;52.150;11.572;2022-09-27T07:33:28;1.42;;;1.13;;
16839;SDS011;8536;52.150;11.572;2022-09-27T07:35:55;2.72;;;1.25;;
16839;SDS011;8536;52.150;11.572;2022-09-27T07:38:21;0.73;;;0.70;;
16839;SDS011;8536;52.150;11.572;2022-09-27T07:40:48;0.75;;;0.75;;
16839;SDS011;8536;52.150;11.572;2022-09-27T07:43:14;1.52;;;1.00;;
16839;SDS011;8536;52.150;11.572;2022-09-27T07:45:41;1.02;;;0.70;;
16839;SDS011;8536;52.150;11.572;2022-09-27T07:48:09;0.93;;;0.90;;
16839;SDS011;8536;52.150;11.572;2022-09-27T07:50:38;0.75;;;0.70;;
16839;SDS011;8536;52.150;11.572;2022-09-27T07:53:04;1.75;;;0.95;;
16839;SDS011;8536;52.150;11.572;2022-09-27T07:55:31;1.73;;;0.90;;
16839;SDS011;8536;52.150;11.572;2022-09-27T07:58:01;2.08;;;0.80;;
16839;SDS011;8536;52.150;11.572;2022-09-27T08:00:35;0.60;;;0.60;;
16839;SDS011;8536;52.150;11.572;2022-09-27T08:03:03;0.90;;;0.60;;
16839;SDS011;8536;52.150;11.572;2022-09-27T08:05:33;1.23;;;0.45;;
16839;SDS011;8536;52.150;11.572;2022-09-27T08:08:01;1.45;;;0.60;;
16839;SDS011;8536;52.150;11.572;2022-09-27T08:10:29;1.70;;;0.70;;
16839;SDS011;8536;52.150;11.572;2022-09-27T08:12:57;1.25;;;0.60;;
16839;SDS011;8536;52.150;11.572;2022-09-27T08:15:24;0.63;;;0.63;;
16839;SDS011;8536;52.150;11.572;2022-09-27T08:17:50;0.90;;;0.50;;
16839;SDS011;8536;52.150;11.572;2022-09-27T08:20:18;1.50;;;0.50;;
16839;SDS011;8536;52.150;11.572;2022-09-27T08:22:44;0.50;;;0.50;;
16839;SDS011;8536;52.150;11.572;2022-09-27T08:25:11;0.82;;;0.63;;
16839;SDS011;8536;52.150;11.572;2022-09-27T08:27:37;0.80;;;0.63;;
16839;SDS011;8536;52.150;11.572;2022-09-27T08:30:04;0.52;;;0.50;;
16839;SDS011;8536;52.150;11.572;2022-09-27T08:32:30;0.75;;;0.73;;
16839;SDS011;8536;52.150;11.572;2022-09-27T08:34:57;2.33;;;0.93;;
16839;SDS011;8536;52.150;11.572;2022-09-27T08:37:24;0.77;;;0.60;;
16839;SDS011;8536;52.150;11.572;2022-09-27T08:39:51;2.80;;;0.70;;
16839;SDS011;8536;52.150;11.572;2022-09-27T08:42:30;1.00;;;0.60;;
16839;SDS011;8536;52.150;11.572;2022-09-27T08:45:14;1.77;;;0.70;;
16839;SDS011;8536;52.150;11.572;2022-09-27T08:47:48;1.98;;;0.80;;
16839;SDS011;8536;52.150;11.572;2022-09-27T08:55:44;1.20;;;0.68;;
16839;SDS011;8536;52.150;11.572;2022-09-27T08:58:24;1.17;;;0.80;;
16839;SDS011;8536;52.150;11.572;2022-09-27T09:00:55;1.00;;;0.85;;
16839;SDS011;8536;52.150;11.572;2022-09-27T09:03:23;1.67;;;0.80;;
16839;SDS011;8536;52.150;11.572;2022-09-27T09:06:07;1.58;;;0.80;;
16839;SDS011;8536;52.150;11.572;2022-09-27T09:08:50;1.08;;;0.77;;
16839;SDS011;8536;52.150;11.572;2022-09-27T09:11:40;0.80;;;0.80;;
16839;SDS011;8536;52.150;11.572;2022-09-27T09:22:53;2.50;;;0.85;;
16839;SDS011;8536;52.150;11.572;2022-09-27T09:25:27;0.75;;;0.57;;
16839;SDS011;8536;52.150;11.572;2022-09-27T09:33:56;1.48;;;0.75;;
16839;SDS011;8536;52.150;11.572;2022-09-27T09:36:24;1.77;;;0.70;;
16839;SDS011;8536;52.150;11.572;2022-09-27T09:38:55;1.67;;;0.70;;
16839;SDS011;8536;52.150;11.572;2022-09-27T09:41:30;1.55;;;0.90;;
16839;SDS011;8536;52.150;11.572;2022-09-27T09:44:06;1.05;;;0.93;;
16839;SDS011;8536;52.150;11.572;2022-09-27T09:46:50;1.23;;;0.85;;
16839;SDS011;8536;52.150;11.572;2022-09-27T09:49:21;4.57;;;1.15;;
16839;SDS011;8536;52.150;11.572;2022-09-27T09:51:58;1.48;;;1.20;;
16839;SDS011;8536;52.150;11.572;2022-09-27T09:54:32;2.38;;;1.13;;
16839;SDS011;8536;52.150;11.572;2022-09-27T09:57:37;1.85;;;1.33;;
16839;SDS011;8536;52.150;11.572;2022-09-27T10:00:15;3.20;;;1.60;;
16839;SDS011;8536;52.150;11.572;2022-09-27T10:02:44;2.00;;;1.75;;
16839;SDS011;8536;52.150;11.572;2022-09-27T10:05:18;2.63;;;1.85;;
16839;SDS011;8536;52.150;11.572;2022-09-27T10:07:46;1.77;;;1.63;;
16839;SDS011;8536;52.150;11.572;2022-09-27T10:10:16;1.52;;;1.33;;
16839;SDS011;8536;52.150;11.572;2022-09-27T10:12:43;2.47;;;1.40;;
16839;SDS011;8536;52.150;11.572;2022-09-27T10:15:15;2.25;;;1.25;;
16839;SDS011;8536;52.150;11.572;2022-09-27T10:17:47;3.70;;;1.90;;
16839;SDS011;8536;52.150;11.572;2022-09-27T10:23:15;3.25;;;1.58;;
16839;SDS011;8536;52.150;11.572;2022-09-27T10:25:45;1.52;;;1.42;;
16839;SDS011;8536;52.150;11.572;2022-09-27T10:31:06;3.22;;;1.55;;
16839;SDS011;8536;52.150;11.572;2022-09-27T10:33:56;1.90;;;1.35;;
16839;SDS011;8536;52.150;11.572;2022-09-27T10:36:26;1.95;;;1.45;;
16839;SDS011;8536;52.150;11.572;2022-09-27T10:38:55;1.52;;;1.17;;
16839;SDS011;8536;52.150;11.572;2022-09-27T10:41:38;2.30;;;1.17;;
16839;SDS011;8536;52.150;11.572;2022-09-27T10:44:28;1.42;;;1.05;;
16839;SDS011;8536;52.150;11.572;2022-09-27T10:47:06;1.00;;;0.88;;
16839;SDS011;8536;52.150;11.572;2022-09-27T10:49:37;0.65;;;0.65;;
16839;SDS011;8536;52.150;11.572;2022-09-27T10:52:16;0.75;;;0.50;;
16839;SDS011;8536;52.150;11.572;2022-09-27T10:54:57;0.50;;;0.50;;
16839;SDS011;8536;52.150;11.572;2022-09-27T10:57:28;0.60;;;0.60;;
16839;SDS011;8536;52.150;11.572;2022-09-27T11:02:50;1.08;;;0.90;;
16839;SDS011;8536;52.150;11.572;2022-09-27T11:07:53;1.40;;;0.80;;
16839;SDS011;8536;52.150;11.572;2022-09-27T11:18:49;2.33;;;1.10;;
16839;SDS011;8536;52.150;11.572;2022-09-27T11:24:33;2.78;;;1.00;;
16839;SDS011;8536;52.150;11.572;2022-09-27T11:30:01;1.33;;;1.00;;
16839;SDS011;8536;52.150;11.572;2022-09-27T11:38:16;0.80;;;0.70;;
16839;SDS011;8536;52.150;11.572;2022-09-27T11:46:40;2.10;;;1.10;;
16839;SDS011;8536;52.150;11.572;2022-09-27T11:51:52;0.73;;;0.60;;
16839;SDS011;8536;52.150;11.572;2022-09-27T11:57:35;1.65;;;0.90;;
16839;SDS011;8536;52.150;11.572;2022-09-27T12:02:54;1.92;;;0.70;;
16839;SDS011;8536;52.150;11.572;2022-09-27T12:10:32;1.00;;;0.60;;
16839;SDS011;8536;52.150;11.572;2022-09-27T12:12:59;3.08;;;0.50;;
16839;SDS011;8536;52.150;11.572;2022-09-27T12:15:29;0.90;;;0.50;;
16839;SDS011;8536;52.150;11.572;2022-09-27T12:18:04;1.88;;;0.75;;
16839;SDS011;8536;52.150;11.572;2022-09-27T12:20:48;1.10;;;0.60;;
16839;SDS011;8536;52.150;11.572;2022-09-27T12:23:19;3.15;;;1.05;;
16839;SDS011;8536;52.150;11.572;2022-09-27T12:25:49;1.00;;;0.50;;
16839;SDS011;8536;52.150;11.572;2022-09-27T12:28:21;1.75;;;0.70;;
16839;SDS011;8536;52.150;11.572;2022-09-27T12:30:57;0.75;;;0.50;;
16839;SDS011;8536;52.150;11.572;2022-09-27T12:33:50;1.33;;;0.50;;
16839;SDS011;8536;52.150;11.572;2022-09-27T12:36:23;1.70;;;0.40;;
16839;SDS011;8536;52.150;11.572;2022-09-27T12:38:57;0.85;;;0.30;;
16839;SDS011;8536;52.150;11.572;2022-09-27T12:45:15;1.38;;;0.32;;
16839;SDS011;8536;52.150;11.572;2022-09-27T12:47:55;1.17;;;0.70;;
16839;SDS011;8536;52.150;11.572;2022-09-27T12:53:20;1.10;;;0.50;;
16839;SDS011;8536;52.150;11.572;2022-09-27T12:56:29;0.50;;;0.45;;
16839;SDS011;8536;52.150;11.572;2022-09-27T13:12:59;1.33;;;0.50;;
16839;SDS011;8536;52.150;11.572;2022-09-27T13:15:28;0.85;;;0.40;;
16839;SDS011;8536;52.150;11.572;2022-09-27T13:18:01;0.88;;;0.50;;
16839;SDS011;8536;52.150;11.572;2022-09-27T13:23:00;1.08;;;0.47;;
16839;SDS011;8536;52.150;11.572;2022-09-27T13:25:47;0.47;;;0.30;;
16839;SDS011;8536;52.150;11.572;2022-09-27T13:34:52;0.82;;;0.52;;
16839;SDS011;8536;52.150;11.572;2022-09-27T13:37:29;0.98;;;0.32;;
16839;SDS011;8536;52.150;11.572;2022-09-27T13:40:09;0.60;;;0.30;;
16839;SDS011;8536;52.150;11.572;2022-09-27T13:48:23;3.05;;;0.60;;
16839;SDS011;8536;52.150;11.572;2022-09-27T13:50:54;0.35;;;0.20;;
16839;SDS011;8536;52.150;11.572;2022-09-27T13:53:41;0.65;;;0.25;;
16839;SDS011;8536;52.150;11.572;2022-09-27T14:02:31;0.28;;;0.25;;
16839;SDS011;8536;52.150;11.572;2022-09-27T14:05:02;1.55;;;0.45;;
16839;SDS011;8536;52.150;11.572;2022-09-27T14:13:42;0.60;;;0.22;;
16839;SDS011;8536;52.150;11.572;2022-09-27T14:16:13;0.70;;;0.40;;
16839;SDS011;8536;52.150;11.572;2022-09-27T14:18:45;1.55;;;0.40;;
16839;SDS011;8536;52.150;11.572;2022-09-27T14:21:18;0.43;;;0.30;;
16839;SDS011;8536;52.150;11.572;2022-09-27T14:23:50;0.80;;;0.45;;
16839;SDS011;8536;52.150;11.572;2022-09-27T14:26:26;0.47;;;0.30;;
16839;SDS011;8536;52.150;11.572;2022-09-27T14:28:53;1.73;;;0.40;;
16839;SDS011;8536;52.150;11.572;2022-09-27T14:31:21;0.65;;;0.35;;
16839;SDS011;8536;52.150;11.572;2022-09-27T14:33:56;0.70;;;0.30;;
16839;SDS011;8536;52.150;11.572;2022-09-27T14:36:32;0.40;;;0.40;;
16839;SDS011;8536;52.150;11.572;2022-09-27T14:39:21;0.43;;;0.22;;
16839;SDS011;8536;52.150;11.572;2022-09-27T14:41:58;0.65;;;0.30;;
16839;SDS011;8536;52.150;11.572;2022-09-27T14:44:25;0.80;;;0.40;;
16839;SDS011;8536;52.150;11.572;2022-09-27T14:47:06;0.73;;;0.43;;
16839;SDS011;8536;52.150;11.572;2022-09-27T14:49:34;0.45;;;0.30;;
16839;SDS011;8536;52.150;11.572;2022-09-27T14:52:00;1.67;;;0.52;;
16839;SDS011;8536;52.150;11.572;2022-09-27T14:54:28;1.42;;;0.30;;
16839;SDS011;8536;52.150;11.572;2022-09-27T14:56:55;1.65;;;0.50;;
16839;SDS011;8536;52.150;11.572;2022-09-27T15:02:00;0.47;;;0.40;;
16839;SDS011;8536;52.150;11.572;2022-09-27T15:04:29;0.30;;;0.30;;
16839;SDS011;8536;52.150;11.572;2022-09-27T15:07:00;1.15;;;0.35;;
16839;SDS011;8536;52.150;11.572;2022-09-27T15:09:27;0.60;;;0.40;;
16839;SDS011;8536;52.150;11.572;2022-09-27T15:11:58;1.05;;;0.38;;
16839;SDS011;8536;52.150;11.572;2022-09-27T15:14:26;1.40;;;0.30;;
16839;SDS011;8536;52.150;11.572;2022-09-27T15:16:54;1.27;;;0.30;;
16839;SDS011;8536;52.150;11.572;2022-09-27T15:19:28;1.20;;;0.30;;
16839;SDS011;8536;52.150;11.572;2022-09-27T15:21:55;0.20;;;0.20;;
16839;SDS011;8536;52.150;11.572;2022-09-27T15:24:47;1.55;;;0.32;;
16839;SDS011;8536;52.150;11.572;2022-09-27T15:27:14;0.73;;;0.32;;
16839;SDS011;8536;52.150;11.572;2022-09-27T15:29:46;0.63;;;0.40;;
16839;SDS011;8536;52.150;11.572;2022-09-27T15:32:15;2.65;;;0.32;;
16839;SDS011;8536;52.150;11.572;2022-09-27T15:34:43;0.45;;;0.30;;
16839;SDS011;8536;52.150;11.572;2022-09-27T15:40:57;0.98;;;0.32;;
16839;SDS011;8536;52.150;11.572;2022-09-27T15:43:21;1.35;;;0.40;;
16839;SDS011;8536;52.150;11.572;2022-09-27T15:46:01;0.38;;;0.30;;
16839;SDS011;8536;52.150;11.572;2022-09-27T15:48:30;0.82;;;0.20;;
16839;SDS011;8536;52.150;11.572;2022-09-27T15:50:58;0.38;;;0.30;;
16839;SDS011;8536;52.150;11.572;2022-09-27T15:53:47;0.68;;;0.35;;
16839;SDS011;8536;52.150;11.572;2022-09-27T15:56:12;0.32;;;0.30;;
16839;SDS011;8536;52.150;11.572;2022-09-27T15:58:40;1.95;;;0.38;;
16839;SDS011;8536;52.150;11.572;2022-09-27T16:01:13;0.35;;;0.20;;
16839;SDS011;8536;52.150;11.572;2022-09-27T16:03:42;0.35;;;0.20;;
16839;SDS011;8536;52.150;11.572;2022-09-27T16:06:10;0.20;;;0.20;;
16839;SDS011;8536;52.150;11.572;2022-09-27T16:08:37;0.65;;;0.20;;
16839;SDS011;8536;52.150;11.572;2022-09-27T16:11:04;0.43;;;0.30;;
16839;SDS011;8536;52.150;11.572;2022-09-27T16:13:30;0.40;;;0.30;;
16839;SDS011;8536;52.150;11.572;2022-09-27T16:15:58;0.77;;;0.40;;
16839;SDS011;8536;52.150;11.572;2022-09-27T16:18:25;0.55;;;0.20;;
16839;SDS011;8536;52.150;11.572;2022-09-27T16:20:56;0.65;;;0.45;;
16839;SDS011;8536;52.150;11.572;2022-09-27T16:23:23;0.20;;;0.20;;
16839;SDS011;8536;52.150;11.572;2022-09-27T16:25:51;1.73;;;0.63;;
16839;SDS011;8536;52.150;11.572;2022-09-27T16:28:18;0.80;;;0.70;;
16839;SDS011;8536;52.150;11.572;2022-09-27T16:30:44;0.50;;;0.30;;
16839;SDS011;8536;52.150;11.572;2022-09-27T16:33:10;0.93;;;0.38;;
16839;SDS011;8536;52.150;11.572;2022-09-27T16:35:37;0.40;;;0.40;;
16839;SDS011;8536;52.150;11.572;2022-09-27T16:38:06;2.00;;;0.77;;
16839;SDS011;8536;52.150;11.572;2022-09-27T16:40:32;1.40;;;0.60;;
16839;SDS011;8536;52.150;11.572;2022-09-27T16:42:59;0.30;;;0.30;;
16839;SDS011;8536;52.150;11.572;2022-09-27T16:45:25;0.63;;;0.30;;
16839;SDS011;8536;52.150;11.572;2022-09-27T16:47:59;0.98;;;0.40;;
16839;SDS011;8536;52.150;11.572;2022-09-27T16:50:26;0.47;;;0.32;;
16839;SDS011;8536;52.150;11.572;2022-09-27T16:53:11;0.65;;;0.30;;
16839;SDS011;8536;52.150;11.572;2022-09-27T16:55:38;0.30;;;0.30;;
16839;SDS011;8536;52.150;11.572;2022-09-27T16:58:05;0.63;;;0.30;;
16839;SDS011;8536;52.150;11.572;2022-09-27T17:00:33;0.45;;;0.30;;
16839;SDS011;8536;52.150;11.572;2022-09-27T17:02:59;1.23;;;0.22;;
16839;SDS011;8536;52.150;11.572;2022-09-27T17:05:26;0.90;;;0.45;;
16839;SDS011;8536;52.150;11.572;2022-09-27T17:07:52;0.20;;;0.20;;
16839;SDS011;8536;52.150;11.572;2022-09-27T17:10:19;1.80;;;0.30;;
16839;SDS011;8536;52.150;11.572;2022-09-27T17:12:46;0.20;;;0.20;;
16839;SDS011;8536;52.150;11.572;2022-09-27T17:15:13;0.50;;;0.50;;
16839;SDS011;8536;52.150;11.572;2022-09-27T17:17:40;1.00;;;0.50;;
16839;SDS011;8536;52.150;11.572;2022-09-27T17:20:06;0.60;;;0.60;;
16839;SDS011;8536;52.150;11.572;2022-09-27T17:22:33;0.40;;;0.40;;
16839;SDS011;8536;52.150;11.572;2022-09-27T17:24:59;0.30;;;0.30;;
16839;SDS011;8536;52.150;11.572;2022-09-27T17:27:26;0.22;;;0.22;;
16839;SDS011;8536;52.150;11.572;2022-09-27T17:29:53;0.68;;;0.40;;
16839;SDS011;8536;52.150;11.572;2022-09-27T17:32:20;1.50;;;0.50;;
16839;SDS011;8536;52.150;11.572;2022-09-27T17:34:50;1.10;;;0.50;;
16839;SDS011;8536;52.150;11.572;2022-09-27T17:37:16;0.75;;;0.50;;
16839;SDS011;8536;52.150;11.572;2022-09-27T17:39:43;0.50;;;0.50;;
16839;SDS011;8536;52.150;11.572;2022-09-27T17:42:09;0.63;;;0.50;;
16839;SDS011;8536;52.150;11.572;2022-09-27T17:44:36;0.47;;;0.35;;